Time;durP1;ratioP1;P1;durP2;ratioP2;P2;SDS_P1;SDS_P2;PMS_P1;PMS_P2;Temp;Humidity;BMP_temperature;BMP_pressure;BME280_temperature;BME280_humidity;BME280_pressure;Samples;Min_cycle;Max_cycle;Signal;HPM_P1;HPM_P2
2023/05/26 00:00:16;;;;;;;11.85;9.32;;;;;;;19.70;95.56;100541.94;5109310;28;20035;-65
2023/05/26 00:02:42;;;;;;;11.48;9.85;;;;;;;19.60;95.62;100532.34;5109547;28;20035;-64
2023/05/26 00:05:08;;;;;;;12.70;9.52;;;;;;;19.66;95.79;100543.34;5109371;28;20023;-65
2023/05/26 00:07:40;;;;;;;14.68;10.25;;;;;;;19.63;95.62;100546.44;5109823;28;20023;-65
2023/05/26 00:10:07;;;;;;;12.70;10.10;;;;;;;19.58;95.90;100539.88;5106737;28;20035;-66
2023/05/26 00:12:32;;;;;;;11.18;9.85;;;;;;;19.57;96.28;100541.72;5108604;28;20034;-64
2023/05/26 00:14:58;;;;;;;16.77;10.07;;;;;;;19.56;96.45;100548.22;5108440;28;20035;-65
2023/05/26 00:17:25;;;;;;;10.48;9.48;;;;;;;19.52;96.74;100540.59;5108710;28;20082;-65
2023/05/26 00:19:51;;;;;;;12.63;10.07;;;;;;;19.49;96.59;100541.84;5109489;28;20032;-64
2023/05/26 00:22:18;;;;;;;13.43;11.15;;;;;;;19.48;97.12;100545.56;5109275;28;20039;-65
2023/05/26 00:24:46;;;;;;;12.35;10.23;;;;;;;19.35;96.91;100526.31;5109727;28;20798;-65
2023/05/26 00:27:13;;;;;;;13.25;10.73;;;;;;;19.39;97.38;100541.25;5109351;28;20479;-65
2023/05/26 00:29:38;;;;;;;12.40;10.45;;;;;;;19.34;97.48;100545.53;5109212;28;20432;-66
2023/05/26 00:32:05;;;;;;;11.20;9.98;;;;;;;19.35;97.43;100542.63;5109401;28;20035;-66
2023/05/26 00:34:30;;;;;;;13.95;10.10;;;;;;;19.31;97.56;100543.22;5109319;28;20483;-66
2023/05/26 00:36:56;;;;;;;11.57;9.48;;;;;;;19.18;97.79;100526.63;5109335;28;20028;-66
2023/05/26 00:39:21;;;;;;;10.27;9.23;;;;;;;19.16;98.16;100532.28;5108415;28;20526;-66
2023/05/26 00:41:47;;;;;;;13.50;10.63;;;;;;;19.01;98.29;100509.66;5108806;28;20105;-66
2023/05/26 00:44:13;;;;;;;16.83;10.63;;;;;;;19.15;98.44;100543.34;5108961;28;20079;-66
2023/05/26 00:46:38;;;;;;;13.05;10.18;;;;;;;19.12;98.72;100538.28;5107700;28;20028;-66
2023/05/26 00:49:04;;;;;;;11.45;10.00;;;;;;;19.09;98.89;100536.75;5109397;28;20103;-65
2023/05/26 00:51:31;;;;;;;15.23;9.95;;;;;;;19.01;98.97;100523.25;5108473;28;20036;-65
2023/05/26 00:53:56;;;;;;;14.15;10.27;;;;;;;19.04;99.29;100532.91;5107707;28;21652;-65
2023/05/26 00:56:22;;;;;;;11.80;9.75;;;;;;;18.97;99.15;100530.06;5109369;28;20106;-64
2023/05/26 00:58:48;;;;;;;11.73;10.52;;;;;;;18.95;99.47;100536.69;5109110;28;20040;-65
2023/05/26 01:01:13;;;;;;;14.45;10.63;;;;;;;18.91;99.92;100530.81;5107690;28;20541;-66
2023/05/26 01:03:39;;;;;;;14.27;10.68;;;;;;;18.79;99.89;100526.81;5108994;28;20563;-65
2023/05/26 01:06:05;;;;;;;12.10;10.15;;;;;;;18.87;99.55;100542.22;5113001;28;20475;-65
2023/05/26 01:08:32;;;;;;;12.93;10.73;;;;;;;18.81;99.59;100541.09;5111782;28;20114;-65
2023/05/26 01:11:13;;;;;;;12.55;10.50;;;;;;;18.71;100.00;100542.34;5112805;28;20772;-65
2023/05/26 01:13:47;;;;;;;17.52;11.85;;;;;;;18.73;100.00;100549.28;5112473;28;20044;-65
2023/05/26 01:16:16;;;;;;;14.90;11.15;;;;;;;18.71;100.00;100561.38;5112565;28;20031;-66
2023/05/26 01:19:06;;;;;;;15.80;11.70;;;;;;;18.69;100.00;100553.41;5112568;28;20039;-65
2023/05/26 01:21:36;;;;;;;17.45;12.18;;;;;;;18.65;100.00;100551.22;5110579;28;20046;-65
2023/05/26 01:24:20;;;;;;;16.85;12.23;;;;;;;18.64;100.00;100553.06;5112337;28;20031;-64
2023/05/26 01:26:55;;;;;;;16.42;12.40;;;;;;;18.60;100.00;100545.50;5111241;28;20069;-66
2023/05/26 01:29:24;;;;;;;15.63;12.80;;;;;;;18.56;100.00;100541.44;5112268;28;20055;-66
2023/05/26 01:31:50;;;;;;;17.98;13.35;;;;;;;18.56;100.00;100542.28;5143012;27;20027;-66
2023/05/26 01:34:16;;;;;;;14.93;11.95;;;;;;;18.47;100.00;100526.22;5112278;28;20540;-64
2023/05/26 01:36:42;;;;;;;15.65;12.35;;;;;;;18.44;100.00;100521.97;5111761;28;20034;-65
2023/05/26 01:39:08;;;;;;;17.67;13.05;;;;;;;18.49;100.00;100546.75;5112262;28;20035;-64
2023/05/26 01:41:37;;;;;;;19.88;13.98;;;;;;;18.47;100.00;100540.63;5112253;28;20084;-65
2023/05/26 01:44:23;;;;;;;20.45;14.57;;;;;;;18.43;100.00;100533.88;5112430;28;20031;-65
2023/05/26 01:46:50;;;;;;;18.20;14.65;;;;;;;18.30;98.87;100524.59;5112375;27;20050;-65
2023/05/26 01:49:20;;;;;;;18.40;13.68;;;;;;;18.35;97.07;100544.78;5110862;28;20124;-66
2023/05/26 01:51:57;;;;;;;17.50;13.50;;;;;;;18.31;95.52;100540.72;5112028;28;20023;-66
2023/05/26 01:54:25;;;;;;;20.35;14.05;;;;;;;18.29;94.39;100542.78;5109550;28;20035;-66
2023/05/26 01:56:52;;;;;;;22.33;14.82;;;;;;;18.24;92.74;100542.44;5112020;27;20032;-66
2023/05/26 01:59:20;;;;;;;19.63;14.38;;;;;;;18.27;91.67;100544.81;5111667;28;20035;-65
2023/05/26 02:01:46;;;;;;;18.67;14.10;;;;;;;18.21;91.29;100537.38;5111999;28;20055;-65
2023/05/26 02:04:12;;;;;;;22.08;14.30;;;;;;;18.24;91.32;100547.03;5110957;28;20023;-70
2023/05/26 02:06:38;;;;;;;23.90;15.20;;;;;;;18.20;91.01;100535.69;5112585;28;20029;-69
2023/05/26 02:09:05;;;;;;;22.92;16.15;;;;;;;18.17;91.03;100535.19;5111102;28;20509;-70
2023/05/26 02:11:31;;;;;;;23.38;15.50;;;;;;;18.13;90.65;100540.97;5112349;28;20030;-70
2023/05/26 02:13:57;;;;;;;21.02;15.30;;;;;;;18.03;90.32;100525.94;5112580;28;20076;-71
2023/05/26 02:16:22;;;;;;;23.40;15.25;;;;;;;18.04;89.66;100530.34;5111282;28;20028;-70
2023/05/26 02:18:49;;;;;;;26.95;16.02;;;;;;;17.95;88.83;100528.69;5112600;28;20130;-70
2023/05/26 02:21:15;;;;;;;22.85;14.48;;;;;;;17.98;88.71;100537.34;5112476;28;20066;-69
2023/05/26 02:23:43;;;;;;;18.90;14.25;;;;;;;17.97;88.30;100542.94;5112329;28;20032;-69
2023/05/26 02:26:09;;;;;;;20.20;14.45;;;;;;;17.80;88.34;100511.47;5112383;28;20448;-70
2023/05/26 02:28:34;;;;;;;19.83;14.55;;;;;;;17.83;87.91;100528.22;5112495;28;20031;-70
2023/05/26 02:30:59;;;;;;;22.92;14.57;;;;;;;17.90;87.62;100547.38;5112431;27;20035;-69
2023/05/26 02:33:26;;;;;;;27.27;15.35;;;;;;;17.86;87.67;100540.59;5110371;28;20031;-70
2023/05/26 02:35:52;;;;;;;22.08;15.18;;;;;;;17.85;87.79;100557.91;5112323;28;20049;-69
2023/05/26 02:38:18;;;;;;;27.15;15.38;;;;;;;17.83;87.60;100554.50;5112251;28;20106;-71
2023/05/26 02:40:43;;;;;;;22.88;14.20;;;;;;;17.73;86.85;100527.59;5112100;28;20606;-69
2023/05/26 02:43:09;;;;;;;20.27;14.63;;;;;;;17.77;86.59;100533.53;5110856;28;20395;-69
2023/05/26 02:45:35;;;;;;;22.88;14.60;;;;;;;17.78;86.26;100532.50;5112358;28;20031;-69
2023/05/26 02:48:00;;;;;;;21.40;15.57;;;;;;;17.70;86.29;100536.09;5112033;28;20050;-70
2023/05/26 02:50:26;;;;;;;20.52;14.15;;;;;;;17.72;86.41;100533.19;5111932;28;20032;-70
2023/05/26 02:52:51;;;;;;;19.42;14.48;;;;;;;17.67;86.71;100546.47;5112085;28;20032;-71
2023/05/26 02:55:17;;;;;;;22.48;15.18;;;;;;;17.57;86.53;100535.78;5110853;28;20035;-70
2023/05/26 02:57:42;;;;;;;20.48;14.73;;;;;;;17.62;86.68;100541.56;5110710;28;20029;-70
2023/05/26 03:00:10;;;;;;;23.75;15.05;;;;;;;17.60;86.64;100545.44;5111434;28;20819;-70
2023/05/26 03:02:37;;;;;;;19.52;14.75;;;;;;;17.58;86.29;100542.88;5111522;28;20479;-69
2023/05/26 03:05:02;;;;;;;23.80;15.32;;;;;;;17.56;86.01;100549.53;5111835;28;20111;-69
2023/05/26 03:07:28;;;;;;;20.58;15.48;;;;;;;17.51;86.00;100544.63;5111505;28;20632;-70
2023/05/26 03:09:53;;;;;;;19.52;14.65;;;;;;;17.42;84.73;100536.66;5111800;28;20023;-69
2023/05/26 03:12:19;;;;;;;23.17;16.38;;;;;;;17.45;84.49;100549.91;5109693;28;20168;-70
2023/05/26 03:14:44;;;;;;;21.45;16.25;;;;;;;17.42;83.28;100545.66;5111403;28;20036;-71
2023/05/26 03:17:10;;;;;;;24.83;16.65;;;;;;;17.34;81.98;100534.78;5111271;28;20019;-71
2023/05/26 03:19:36;;;;;;;22.60;15.30;;;;;;;17.35;81.38;100552.75;5111399;28;20035;-71
2023/05/26 03:22:01;;;;;;;25.27;16.40;;;;;;;17.36;81.52;100548.19;5111525;28;20020;-71
2023/05/26 03:24:27;;;;;;;27.77;16.95;;;;;;;17.35;80.39;100549.22;5109937;28;20081;-69
2023/05/26 03:26:52;;;;;;;21.60;14.88;;;;;;;17.37;81.17;100555.28;5111081;28;20471;-70
2023/05/26 03:29:18;;;;;;;25.02;17.10;;;;;;;17.35;81.08;100550.03;5110440;28;20034;-70
2023/05/26 03:31:43;;;;;;;21.77;15.82;;;;;;;17.36;80.59;100551.75;5111239;28;20032;-70
2023/05/26 03:34:09;;;;;;;21.30;15.85;;;;;;;17.25;80.32;100535.00;5111354;28;20043;-71
2023/05/26 03:36:38;;;;;;;26.10;16.20;;;;;;;17.30;80.11;100541.59;5111095;28;20472;-70
2023/05/26 03:39:04;;;;;;;25.85;17.65;;;;;;;17.34;80.47;100552.91;5110443;28;20031;-65
2023/05/26 03:41:31;;;;;;;28.05;17.20;;;;;;;17.31;79.90;100550.56;5107285;28;20027;-65
2023/05/26 03:43:57;;;;;;;26.08;17.15;;;;;;;17.30;80.15;100546.16;5108890;28;20028;-66
2023/05/26 03:46:23;;;;;;;26.92;16.55;;;;;;;17.44;79.53;100557.19;5110302;28;20030;-66
2023/05/26 03:48:48;;;;;;;26.13;15.45;;;;;;;17.51;79.31;100560.88;5110631;28;20043;-70
2023/05/26 03:51:14;;;;;;;25.45;17.05;;;;;;;17.52;79.08;100553.59;5110880;28;20072;-70
2023/05/26 03:53:41;;;;;;;26.00;17.30;;;;;;;17.67;78.23;100565.44;5110740;28;20027;-70
2023/05/26 03:56:07;;;;;;;25.08;16.30;;;;;;;17.72;77.56;100563.03;5110150;28;20027;-70
2023/05/26 03:58:33;;;;;;;22.90;15.55;;;;;;;17.62;77.76;100528.00;5110664;28;20047;-69
2023/05/26 04:01:00;;;;;;;22.95;16.23;;;;;;;17.82;77.97;100566.41;5110847;28;20024;-70
2023/05/26 04:03:26;;;;;;;23.48;16.10;;;;;;;17.84;77.98;100553.50;5110449;28;20067;-70
2023/05/26 04:05:52;;;;;;;25.73;16.10;;;;;;;17.91;77.64;100554.50;5110816;28;20088;-70
2023/05/26 04:08:17;;;;;;;21.65;15.70;;;;;;;18.10;76.87;100575.78;5110602;28;20495;-69
2023/05/26 04:10:43;;;;;;;26.17;15.45;;;;;;;18.11;76.32;100563.91;5110790;28;20039;-71
2023/05/26 04:13:08;;;;;;;24.95;15.85;;;;;;;18.27;75.41;100574.69;5110627;28;20046;-71
2023/05/26 04:15:34;;;;;;;23.02;16.00;;;;;;;18.33;75.24;100573.97;5110627;28;20077;-71
2023/05/26 04:17:59;;;;;;;25.70;16.27;;;;;;;18.32;75.26;100557.84;5110576;28;20139;-70
2023/05/26 04:20:25;;;;;;;22.25;16.33;;;;;;;18.47;74.67;100575.94;5109463;28;20031;-64
2023/05/26 04:22:50;;;;;;;24.67;16.00;;;;;;;18.56;74.83;100584.91;5108670;28;20027;-64
2023/05/26 04:25:16;;;;;;;20.98;14.02;;;;;;;18.64;74.08;100571.28;5107823;28;20114;-65
2023/05/26 04:27:42;;;;;;;22.88;16.08;;;;;;;18.69;74.03;100566.13;5108719;28;20455;-66
2023/05/26 04:30:08;;;;;;;26.50;16.27;;;;;;;18.84;73.48;100569.75;5108605;28;20023;-65
2023/05/26 04:32:35;;;;;;;20.05;16.00;;;;;;;18.92;72.64;100573.25;5108438;28;20019;-66
2023/05/26 04:35:01;;;;;;;29.38;18.45;;;;;;;19.03;71.80;100572.84;5108876;28;20043;-65
2023/05/26 04:37:26;;;;;;;21.65;15.65;;;;;;;19.00;71.05;100542.44;5108820;28;20077;-65
2023/05/26 04:39:52;;;;;;;21.67;15.65;;;;;;;19.23;70.86;100567.72;5111130;28;20815;-65
2023/05/26 04:42:19;;;;;;;24.25;16.58;;;;;;;19.34;70.30;100565.44;5112074;28;20027;-66
2023/05/26 04:44:45;;;;;;;23.67;15.90;;;;;;;19.48;70.15;100575.50;5112751;28;20030;-65
2023/05/26 04:47:11;;;;;;;24.58;15.35;;;;;;;19.53;68.99;100559.47;5112861;28;20012;-65
2023/05/26 04:49:37;;;;;;;29.92;15.88;;;;;;;19.69;68.08;100569.31;5112670;28;20025;-65
2023/05/26 04:52:02;;;;;;;23.83;15.25;;;;;;;19.78;68.08;100566.34;5111818;28;20031;-65
2023/05/26 04:54:28;;;;;;;25.90;15.77;;;;;;;19.82;68.04;100562.22;5112173;28;20420;-65
2023/05/26 04:56:54;;;;;;;28.88;16.45;;;;;;;20.00;67.48;100559.09;5112407;28;20023;-65
2023/05/26 04:59:21;;;;;;;24.23;15.73;;;;;;;20.08;67.23;100565.28;5112451;28;20429;-64
2023/05/26 05:01:50;;;;;;;24.35;16.00;;;;;;;20.21;65.98;100571.97;5112253;28;20050;-64
2023/05/26 05:04:16;;;;;;;21.75;15.27;;;;;;;20.27;66.45;100572.03;5112328;28;20463;-64
2023/05/26 05:06:42;;;;;;;29.33;17.23;;;;;;;20.39;65.33;100575.13;5111977;28;20332;-65
2023/05/26 05:09:08;;;;;;;22.27;15.52;;;;;;;20.44;65.64;100575.41;5112372;28;20057;-65
2023/05/26 05:11:33;;;;;;;23.50;15.77;;;;;;;20.52;65.62;100578.84;5111952;28;20035;-65
2023/05/26 05:13:59;;;;;;;24.30;16.25;;;;;;;20.57;65.13;100581.00;5110770;28;20047;-65
2023/05/26 05:16:24;;;;;;;25.90;16.70;;;;;;;20.56;64.42;100563.81;5110600;28;20038;-65
2023/05/26 05:18:50;;;;;;;24.52;16.75;;;;;;;20.79;64.71;100586.28;5111828;28;20563;-66
2023/05/26 05:21:16;;;;;;;29.23;16.52;;;;;;;20.73;64.75;100570.69;5111061;28;20031;-65
2023/05/26 05:23:41;;;;;;;24.80;16.13;;;;;;;20.90;64.43;100590.38;5111861;28;20479;-64
2023/05/26 05:26:07;;;;;;;35.95;16.25;;;;;;;20.99;64.12;100595.53;5112009;28;20024;-69
2023/05/26 05:28:32;;;;;;;30.98;16.08;;;;;;;21.09;64.14;100600.69;5113960;28;20036;-69
2023/05/26 05:30:58;;;;;;;22.73;16.00;;;;;;;21.06;63.18;100590.16;5113300;28;20080;-69
2023/05/26 05:33:24;;;;;;;25.23;15.85;;;;;;;21.20;62.12;100605.59;5113402;28;20031;-70
2023/05/26 05:35:50;;;;;;;25.65;16.48;;;;;;;21.13;61.90;100591.91;5113854;28;20027;-69
2023/05/26 05:38:15;;;;;;;27.17;16.90;;;;;;;21.21;62.37;100590.91;5113639;28;20043;-69
2023/05/26 05:40:41;;;;;;;28.95;15.63;;;;;;;21.14;62.26;100569.03;5113878;28;20028;-70
2023/05/26 05:43:08;;;;;;;31.92;15.73;;;;;;;21.33;62.55;100595.66;5113946;28;20034;-70
2023/05/26 05:45:34;;;;;;;33.08;17.00;;;;;;;21.42;62.00;100599.94;5111002;28;20031;-70
2023/05/26 05:47:59;;;;;;;26.90;14.98;;;;;;;21.47;61.71;100605.63;5111935;28;20396;-70
2023/05/26 05:50:25;;;;;;;28.48;15.77;;;;;;;21.52;61.05;100597.69;5113717;28;20054;-71
2023/05/26 05:52:50;;;;;;;23.50;15.73;;;;;;;21.59;61.36;100595.00;5113625;28;20035;-71
2023/05/26 05:55:16;;;;;;;24.58;15.65;;;;;;;21.70;60.75;100592.56;5113476;28;20459;-70
2023/05/26 05:57:41;;;;;;;24.10;17.10;;;;;;;21.81;60.67;100599.41;5113139;28;20019;-70
2023/05/26 06:00:09;;;;;;;22.08;15.38;;;;;;;21.79;60.31;100596.88;5113086;28;20126;-71
2023/05/26 06:02:37;;;;;;;24.85;15.23;;;;;;;21.86;60.22;100605.13;5111731;28;20046;-69
2023/05/26 06:05:03;;;;;;;21.48;13.95;;;;;;;21.92;60.26;100599.69;5112847;28;20031;-70
2023/05/26 06:07:29;;;;;;;19.60;14.38;;;;;;;22.00;60.11;100601.41;5112615;28;20043;-70
2023/05/26 06:09:56;;;;;;;22.23;15.20;;;;;;;22.05;59.79;100596.19;5113121;27;20016;-71
2023/05/26 06:12:22;;;;;;;18.88;14.27;;;;;;;22.16;59.69;100606.56;5111307;28;20131;-70
2023/05/26 06:14:48;;;;;;;18.73;14.80;;;;;;;22.16;59.04;100595.63;5112583;28;20185;-70
2023/05/26 06:17:13;;;;;;;27.10;14.65;;;;;;;22.26;59.55;100607.03;5111876;28;20027;-70
2023/05/26 06:19:39;;;;;;;19.55;14.18;;;;;;;22.31;59.42;100599.88;5111244;28;20047;-71
2023/05/26 06:22:04;;;;;;;17.95;15.10;;;;;;;22.44;58.89;100612.75;5112250;28;20046;-69
2023/05/26 06:24:30;;;;;;;26.83;14.52;;;;;;;22.41;59.09;100605.00;5111958;28;20020;-70
2023/05/26 06:26:55;;;;;;;21.85;14.80;;;;;;;22.48;58.98;100614.06;5112430;28;20042;-70
2023/05/26 06:29:21;;;;;;;19.35;14.73;;;;;;;22.46;59.13;100604.34;5112499;28;20357;-70
2023/05/26 06:31:46;;;;;;;18.50;14.77;;;;;;;22.63;58.92;100605.75;5111387;28;20455;-71
2023/05/26 06:34:11;;;;;;;17.40;14.15;;;;;;;22.73;59.19;100607.00;5112185;28;20527;-68
2023/05/26 06:36:37;;;;;;;17.17;14.23;;;;;;;22.84;58.39;100602.84;5112116;28;20027;-69
2023/05/26 06:39:02;;;;;;;25.35;14.05;;;;;;;22.89;57.38;100595.69;5112384;28;20250;-69
2023/05/26 06:41:28;;;;;;;18.70;15.02;;;;;;;22.93;57.77;100596.13;5110656;28;20024;-69
2023/05/26 06:43:54;;;;;;;24.65;15.55;;;;;;;23.01;58.25;100604.97;5111635;28;20464;-69
2023/05/26 06:46:20;;;;;;;23.05;15.07;;;;;;;23.08;58.31;100611.31;5110837;28;20665;-69
2023/05/26 06:48:45;;;;;;;23.60;14.18;;;;;;;23.05;58.01;100606.25;5109849;28;20055;-69
2023/05/26 06:51:10;;;;;;;21.45;14.63;;;;;;;23.15;57.77;100609.41;5112037;28;20114;-69
2023/05/26 06:53:37;;;;;;;17.35;13.95;;;;;;;23.23;57.30;100624.84;5112110;28;20026;-69
2023/05/26 06:56:04;;;;;;;18.55;14.25;;;;;;;23.26;57.37;100617.06;5112059;28;20020;-69
2023/05/26 06:58:29;;;;;;;19.30;14.30;;;;;;;23.35;57.13;100621.28;5112192;28;20540;-69
2023/05/26 07:00:56;;;;;;;19.13;14.63;;;;;;;23.40;56.91;100621.47;5110289;28;20020;-70
2023/05/26 07:03:22;;;;;;;18.73;14.63;;;;;;;23.41;57.31;100614.94;5110421;28;20102;-70
2023/05/26 07:05:47;;;;;;;25.45;15.27;;;;;;;23.38;57.13;100609.88;5112255;28;20045;-70
2023/05/26 07:08:12;;;;;;;21.02;15.30;;;;;;;23.58;56.54;100626.34;5112231;28;20020;-70
2023/05/26 07:10:38;;;;;;;18.63;14.88;;;;;;;23.63;56.50;100626.56;5112230;28;20031;-70
2023/05/26 07:13:04;;;;;;;20.13;13.70;;;;;;;23.71;56.59;100626.31;5111532;28;20088;-70
2023/05/26 07:15:29;;;;;;;18.30;14.30;;;;;;;23.77;57.00;100615.34;5110975;28;20035;-69
2023/05/26 07:17:54;;;;;;;19.35;14.63;;;;;;;23.81;56.81;100613.88;5112311;28;20054;-70
2023/05/26 07:20:20;;;;;;;18.33;14.45;;;;;;;23.90;56.55;100623.53;5112261;28;20106;-69
2023/05/26 07:22:45;;;;;;;15.20;13.43;;;;;;;23.94;56.47;100610.31;5112388;28;20030;-70
2023/05/26 07:25:11;;;;;;;24.35;15.32;;;;;;;24.17;55.40;100625.22;5112200;28;20106;-70
2023/05/26 07:27:36;;;;;;;19.38;14.00;;;;;;;24.19;55.41;100617.59;5112103;28;20524;-70
2023/05/26 07:30:01;;;;;;;23.58;14.20;;;;;;;24.36;54.05;100621.59;5112002;28;20027;-69
2023/05/26 07:32:27;;;;;;;18.55;14.88;;;;;;;24.35;54.17;100608.91;5111701;28;20023;-69
2023/05/26 07:34:52;;;;;;;15.85;12.98;;;;;;;24.34;54.53;100623.69;5112065;28;20031;-69
2023/05/26 07:37:18;;;;;;;14.85;13.25;;;;;;;24.30;54.92;100614.22;5111975;28;20434;-69
2023/05/26 07:39:43;;;;;;;20.48;13.35;;;;;;;24.36;55.48;100596.91;5109934;28;20038;-69
2023/05/26 07:42:09;;;;;;;18.42;13.63;;;;;;;24.49;55.83;100606.97;5111768;28;20572;-69
2023/05/26 07:44:34;;;;;;;19.70;14.02;;;;;;;24.57;55.26;100617.72;5111953;28;20522;-69
2023/05/26 07:47:00;;;;;;;18.63;13.82;;;;;;;24.64;55.09;100621.28;5111009;28;20491;-66
2023/05/26 07:49:25;;;;;;;20.13;13.57;;;;;;;24.77;55.29;100620.38;5110099;28;20490;-66
2023/05/26 07:51:50;;;;;;;20.70;14.25;;;;;;;24.82;54.94;100618.66;5107382;28;20532;-66
2023/05/26 07:54:16;;;;;;;19.75;14.75;;;;;;;24.88;55.05;100623.25;5109709;28;20537;-65
2023/05/26 07:56:41;;;;;;;22.17;14.65;;;;;;;24.89;54.58;100619.44;5109977;28;20164;-66
2023/05/26 07:59:07;;;;;;;18.75;13.63;;;;;;;24.81;54.63;100607.88;5109026;28;20036;-66
2023/05/26 08:01:32;;;;;;;15.95;14.18;;;;;;;24.83;55.21;100622.25;5109647;28;20042;-65
2023/05/26 08:03:58;;;;;;;16.75;14.32;;;;;;;24.85;55.00;100618.22;5109973;28;20035;-66
2023/05/26 08:06:23;;;;;;;19.88;13.23;;;;;;;24.83;55.20;100617.59;5109790;28;20051;-66
2023/05/26 08:08:48;;;;;;;25.00;13.63;;;;;;;24.91;54.57;100616.47;5109174;28;20059;-66
2023/05/26 08:11:14;;;;;;;17.95;13.73;;;;;;;24.97;55.05;100621.94;5110021;28;20031;-66
2023/05/26 08:13:39;;;;;;;19.50;13.75;;;;;;;25.08;54.32;100623.97;5109694;28;20093;-66
2023/05/26 08:16:06;;;;;;;17.33;13.25;;;;;;;25.09;54.01;100628.44;5114192;28;20490;-69
2023/05/26 08:18:31;;;;;;;18.77;14.38;;;;;;;25.01;54.22;100612.19;5115835;28;20031;-69
2023/05/26 08:20:57;;;;;;;15.23;12.77;;;;;;;25.14;54.49;100617.59;5115841;28;20038;-69
2023/05/26 08:23:22;;;;;;;21.98;15.15;;;;;;;25.17;54.52;100613.56;5115673;28;20024;-69
2023/05/26 08:25:50;;;;;;;18.23;13.93;;;;;;;25.13;53.78;100598.59;5115558;28;20051;-69
2023/05/26 08:28:16;;;;;;;20.77;14.65;;;;;;;25.27;53.74;100611.16;5115611;28;20541;-69
2023/05/26 08:30:41;;;;;;;18.63;14.73;;;;;;;25.27;54.20;100617.50;5115754;28;20028;-69
2023/05/26 08:33:07;;;;;;;17.48;13.68;;;;;;;25.29;53.97;100612.66;5114522;28;20403;-69
2023/05/26 08:35:32;;;;;;;17.88;13.43;;;;;;;25.30;54.18;100607.97;5114518;28;20110;-69
2023/05/26 08:37:58;;;;;;;19.88;14.80;;;;;;;25.42;54.35;100607.09;5115844;27;20114;-70
2023/05/26 08:40:23;;;;;;;20.42;14.27;;;;;;;25.35;53.16;100597.22;5115561;28;20032;-69
2023/05/26 08:42:53;;;;;;;18.45;14.35;;;;;;;25.44;53.08;100606.88;5112943;28;20220;-70
2023/05/26 08:45:19;;;;;;;17.77;14.18;;;;;;;25.42;53.51;100614.47;5115188;28;20436;-70
2023/05/26 08:47:47;;;;;;;17.25;13.25;;;;;;;25.45;53.65;100611.28;5115500;28;20051;-70
2023/05/26 08:50:13;;;;;;;15.32;13.23;;;;;;;25.50;54.22;100609.53;5112839;28;20027;-70
2023/05/26 08:52:41;;;;;;;18.35;14.07;;;;;;;25.59;54.46;100610.94;5113858;28;20019;-69
2023/05/26 08:55:08;;;;;;;18.98;14.57;;;;;;;25.63;54.63;100614.91;5115345;28;20087;-69
2023/05/26 08:57:34;;;;;;;17.42;13.90;;;;;;;25.63;54.16;100600.38;5115038;27;20073;-70
2023/05/26 09:00:01;;;;;;;19.90;14.02;;;;;;;25.74;53.70;100616.09;5115555;28;20031;-69
2023/05/26 09:02:27;;;;;;;18.77;13.93;;;;;;;25.63;52.69;100589.38;5112855;28;20058;-69
2023/05/26 09:04:52;;;;;;;16.35;12.50;;;;;;;25.79;52.98;100613.53;5114735;28;20106;-69
2023/05/26 09:07:18;;;;;;;18.30;13.77;;;;;;;25.78;52.71;100618.19;5113880;28;20077;-70
2023/05/26 09:09:44;;;;;;;22.52;13.32;;;;;;;25.78;51.65;100609.06;5114804;28;20115;-69
2023/05/26 09:12:11;;;;;;;17.95;12.55;;;;;;;25.76;51.65;100608.47;5114973;27;20052;-69
2023/05/26 09:14:38;;;;;;;19.42;13.18;;;;;;;25.82;52.64;100605.66;5112470;28;20049;-69
2023/05/26 09:17:04;;;;;;;14.10;12.60;;;;;;;25.89;52.03;100605.59;5114725;27;20064;-69
2023/05/26 09:19:32;;;;;;;15.80;12.25;;;;;;;25.94;52.23;100603.84;5114656;28;20403;-69
2023/05/26 09:22:05;;;;;;;26.25;13.82;;;;;;;25.99;51.63;100605.97;5114776;28;20035;-69
2023/05/26 09:24:42;;;;;;;27.77;13.63;;;;;;;26.08;51.88;100607.31;5114074;28;20050;-69
2023/05/26 09:27:22;;;;;;;16.65;12.82;;;;;;;26.07;51.88;100601.00;5111995;28;20479;-69
2023/05/26 09:29:52;;;;;;;14.27;11.55;;;;;;;26.17;51.41;100597.69;5112375;28;20475;-66
2023/05/26 09:32:17;;;;;;;14.20;12.57;;;;;;;26.18;51.55;100597.47;5109317;28;20032;-66
2023/05/26 09:34:43;;;;;;;13.70;12.18;;;;;;;26.19;51.69;100584.56;5112619;28;20496;-66
2023/05/26 09:37:09;;;;;;;17.40;12.52;;;;;;;26.22;51.46;100595.94;5112424;28;20024;-66
2023/05/26 09:39:35;;;;;;;21.30;11.85;;;;;;;26.18;51.16;100593.91;5112066;28;20043;-66
2023/05/26 09:42:06;;;;;;;13.38;11.98;;;;;;;26.23;51.64;100597.63;5112007;28;20028;-66
2023/05/26 09:44:31;;;;;;;13.68;11.82;;;;;;;26.27;51.70;100596.09;5110034;28;20031;-66
2023/05/26 09:46:57;;;;;;;19.17;12.80;;;;;;;26.31;51.48;100585.50;5112338;28;20075;-66
2023/05/26 09:49:22;;;;;;;14.88;12.90;;;;;;;26.38;51.28;100580.75;5112151;28;20502;-66
2023/05/26 09:51:50;;;;;;;22.02;12.23;;;;;;;26.41;50.79;100577.53;5111956;28;20105;-66
2023/05/26 09:54:16;;;;;;;17.13;13.05;;;;;;;26.42;51.57;100581.97;5111860;28;20387;-67
2023/05/26 09:56:53;;;;;;;19.35;12.43;;;;;;;26.47;51.97;100582.94;5111817;28;20028;-66
2023/05/26 09:59:31;;;;;;;14.98;11.73;;;;;;;26.55;50.34;100576.28;5111193;28;20032;-66
2023/05/26 10:01:57;;;;;;;21.23;12.48;;;;;;;26.57;50.38;100581.56;5107055;28;20369;-66
2023/05/26 10:04:24;;;;;;;16.67;11.88;;;;;;;26.56;50.44;100585.38;5111681;28;20076;-66
2023/05/26 10:06:51;;;;;;;15.82;12.27;;;;;;;26.47;49.63;100568.34;5111726;28;20471;-66
2023/05/26 10:09:21;;;;;;;12.50;11.15;;;;;;;26.53;50.24;100576.50;5111455;28;20023;-66
2023/05/26 10:11:49;;;;;;;14.20;12.27;;;;;;;26.55;50.33;100576.28;5109405;28;20050;-66
2023/05/26 10:14:15;;;;;;;18.83;12.35;;;;;;;26.61;49.77;100564.38;5111544;28;20392;-66
2023/05/26 10:16:41;;;;;;;16.67;11.75;;;;;;;26.66;50.30;100569.19;5110975;28;20023;-66
2023/05/26 10:19:07;;;;;;;17.45;11.88;;;;;;;26.69;51.08;100575.06;5111439;28;20060;-66
2023/05/26 10:21:41;;;;;;;15.32;12.13;;;;;;;26.78;49.26;100575.56;5111065;28;20105;-66
2023/05/26 10:24:14;;;;;;;15.60;12.38;;;;;;;26.77;50.14;100572.00;5110063;28;20028;-66
2023/05/26 10:27:05;;;;;;;15.35;12.90;;;;;;;26.75;50.54;100574.13;5111591;28;20027;-66
2023/05/26 10:29:46;;;;;;;16.60;11.55;;;;;;;26.76;49.70;100563.97;5110297;28;20051;-66
2023/05/26 10:32:41;;;;;;;18.02;11.80;;;;;;;26.78;48.52;100561.81;5109808;28;20034;-66
2023/05/26 10:35:28;;;;;;;14.38;11.57;;;;;;;26.79;49.33;100564.31;5111525;28;20035;-66
2023/05/26 10:37:57;;;;;;;15.82;11.88;;;;;;;26.85;50.28;100562.56;5110331;28;20028;-66
2023/05/26 10:40:36;;;;;;;14.93;11.80;;;;;;;26.86;49.58;100548.56;5109953;28;20039;-66
2023/05/26 10:43:02;;;;;;;14.68;12.68;;;;;;;26.98;50.21;100554.09;5109933;28;20039;-66
2023/05/26 10:45:32;;;;;;;18.45;12.85;;;;;;;26.95;49.80;100544.38;5112893;28;20535;-69
2023/05/26 10:48:05;;;;;;;13.85;10.90;;;;;;;27.07;48.81;100552.66;5113260;28;20433;-69
2023/05/26 10:50:55;;;;;;;12.20;10.73;;;;;;;27.12;48.83;100547.31;5110321;28;20031;-66
2023/05/26 10:53:22;;;;;;;17.75;11.15;;;;;;;27.12;49.07;100548.16;5109581;28;20019;-67
2023/05/26 10:55:59;;;;;;;16.00;10.23;;;;;;;27.19;48.74;100543.38;5110392;28;20042;-66
2023/05/26 10:58:27;;;;;;;15.38;10.13;;;;;;;27.25;48.38;100545.22;5108970;28;20036;-66
2023/05/26 11:01:25;;;;;;;17.98;10.00;;;;;;;27.27;46.92;100548.56;5110455;28;20087;-66
2023/05/26 11:04:08;;;;;;;16.77;10.43;;;;;;;27.24;46.98;100524.25;5064255;28;20047;-66
2023/05/26 11:06:47;;;;;;;18.73;11.00;;;;;;;27.34;47.01;100538.25;5110595;28;20032;-66
2023/05/26 11:09:13;;;;;;;17.35;10.65;;;;;;;27.29;47.24;100534.53;5107014;28;20035;-66